createdAt,value
2023-05-15T00:00:04.273Z,12.15
2023-05-15T00:02:31.939Z,12.63
2023-05-15T00:04:58.374Z,12.45
2023-05-15T00:07:24.617Z,12.00
2023-05-15T00:09:50.924Z,12.75
2023-05-15T00:12:17.144Z,12.30
2023-05-15T00:14:44.201Z,11.32
2023-05-15T00:17:10.426Z,11.50
2023-05-15T00:19:36.900Z,11.95
2023-05-15T00:22:03.105Z,12.57
2023-05-15T00:24:30.759Z,12.25
2023-05-15T00:26:57.051Z,11.40
2023-05-15T00:29:23.529Z,12.00
2023-05-15T00:31:50.142Z,12.27
2023-05-15T00:34:19.744Z,11.73
2023-05-15T00:36:45.997Z,11.52
2023-05-15T00:39:12.243Z,11.80
2023-05-15T00:41:41.704Z,11.37
2023-05-15T00:44:07.997Z,11.77
2023-05-15T00:46:34.504Z,11.68
2023-05-15T00:49:00.757Z,12.15
2023-05-15T00:51:26.946Z,10.32
2023-05-15T00:53:54.568Z,12.00
2023-05-15T00:56:23.420Z,11.63
2023-05-15T00:58:52.273Z,11.27
2023-05-15T01:01:18.817Z,11.70
2023-05-15T01:03:45.083Z,11.65
2023-05-15T01:06:11.289Z,11.07
2023-05-15T01:08:37.499Z,11.27
2023-05-15T01:11:05.452Z,10.68
2023-05-15T01:13:31.729Z,10.57
2023-05-15T01:15:57.979Z,11.60
2023-05-15T01:18:24.237Z,11.63
2023-05-15T01:20:50.498Z,11.50
2023-05-15T01:23:18.723Z,11.93
2023-05-15T01:25:48.372Z,11.52
2023-05-15T01:30:44.999Z,10.60
2023-05-15T01:33:11.250Z,11.27
2023-05-15T01:35:37.532Z,11.50
2023-05-15T01:38:03.760Z,10.80
2023-05-15T01:40:30.082Z,11.95
2023-05-15T01:42:56.427Z,11.07
2023-05-15T01:45:22.939Z,10.68
2023-05-15T01:47:49.373Z,10.77
2023-05-15T01:50:15.631Z,10.75
2023-05-15T01:52:44.955Z,11.00
2023-05-15T01:55:12.050Z,10.85
2023-05-15T01:57:38.280Z,10.65
2023-05-15T02:00:04.553Z,11.52
2023-05-15T02:02:31.855Z,11.52
2023-05-15T02:04:58.160Z,11.20
2023-05-15T02:07:25.597Z,11.00
2023-05-15T02:09:55.337Z,10.45
2023-05-15T02:12:24.925Z,10.60
2023-05-15T02:14:51.221Z,11.73
2023-05-15T02:17:17.449Z,10.60
2023-05-15T02:19:43.770Z,10.82
2023-05-15T02:22:11.229Z,10.98
2023-05-15T02:24:37.430Z,11.27
2023-05-15T02:27:03.683Z,10.02
2023-05-15T02:29:30.042Z,10.85
2023-05-15T02:31:56.302Z,11.65
2023-05-15T02:34:22.582Z,11.15
2023-05-15T02:36:48.828Z,11.40
2023-05-15T02:39:15.022Z,11.38
2023-05-15T02:41:41.308Z,11.13
2023-05-15T02:44:07.548Z,9.93
2023-05-15T02:46:35.797Z,10.30
2023-05-15T02:49:02.290Z,10.90
2023-05-15T02:51:28.848Z,11.30
2023-05-15T02:53:55.696Z,10.95
2023-05-15T02:56:24.547Z,10.77
2023-05-15T02:58:51.656Z,10.98
2023-05-15T03:01:17.875Z,10.68
2023-05-15T03:03:46.417Z,10.45
2023-05-15T03:06:12.656Z,10.43
2023-05-15T03:08:38.863Z,11.32
2023-05-15T03:11:05.508Z,10.30
2023-05-15T03:13:31.767Z,11.20
2023-05-15T03:15:58.116Z,11.77
2023-05-15T03:18:24.345Z,11.52
2023-05-15T03:20:50.712Z,10.70
2023-05-15T03:23:16.906Z,10.73
2023-05-15T03:25:43.146Z,10.57
2023-05-15T03:28:10.914Z,10.93
2023-05-15T03:30:37.303Z,10.23
2023-05-15T03:33:03.619Z,11.00
2023-05-15T03:35:30.660Z,12.45
2023-05-15T03:37:56.890Z,10.55
2023-05-15T03:40:28.139Z,10.38
2023-05-15T03:42:56.455Z,11.43
2023-05-15T03:45:22.838Z,10.93
2023-05-15T03:47:49.537Z,11.05
2023-05-15T03:50:17.662Z,9.93
2023-05-15T03:52:44.492Z,10.90
2023-05-15T03:55:10.763Z,9.88
2023-05-15T03:57:37.013Z,11.52
2023-05-15T04:00:03.611Z,12.40
2023-05-15T04:02:31.252Z,10.10
2023-05-15T04:04:57.678Z,10.50
2023-05-15T04:07:29.136Z,10.25
2023-05-15T04:09:57.145Z,11.00
2023-05-15T04:12:23.359Z,11.07
2023-05-15T04:14:49.637Z,10.55
2023-05-15T04:17:15.862Z,10.70
2023-05-15T04:19:43.130Z,9.68
2023-05-15T04:22:09.480Z,10.82
2023-05-15T04:24:36.551Z,10.57
2023-05-15T04:27:02.930Z,10.88
2023-05-15T04:29:29.304Z,11.02
2023-05-15T04:31:55.592Z,10.90
2023-05-15T04:34:21.810Z,10.27
2023-05-15T04:36:48.008Z,10.50
2023-05-15T04:39:14.251Z,10.95
2023-05-15T04:41:41.269Z,10.80
2023-05-15T04:44:07.505Z,10.27
2023-05-15T04:46:33.740Z,12.70
2023-05-15T04:49:02.374Z,10.98
2023-05-15T04:51:28.608Z,11.43
2023-05-15T04:53:56.465Z,11.80
2023-05-15T04:56:23.844Z,10.38
2023-05-15T04:58:50.194Z,10.95
2023-05-15T05:01:17.025Z,9.95
2023-05-15T05:03:43.295Z,11.32
2023-05-15T05:06:11.622Z,11.27
2023-05-15T05:08:37.905Z,11.60
2023-05-15T05:11:04.229Z,11.43
2023-05-15T05:13:30.447Z,11.13
2023-05-15T05:15:56.755Z,10.98
2023-05-15T05:18:22.997Z,11.63
2023-05-15T05:20:49.218Z,11.55
2023-05-15T05:23:15.477Z,11.82
2023-05-15T05:25:41.828Z,11.68
2023-05-15T05:28:08.058Z,11.73
2023-05-15T05:30:34.316Z,15.38
2023-05-15T05:33:00.675Z,11.93
2023-05-15T05:35:29.272Z,15.38
2023-05-15T05:37:57.315Z,12.85
2023-05-15T05:40:26.667Z,12.15
2023-05-15T05:42:52.885Z,11.82
2023-05-15T05:45:19.789Z,12.30
2023-05-15T05:47:46.050Z,13.02
2023-05-15T05:50:12.288Z,12.20
2023-05-15T05:52:38.532Z,16.52
2023-05-15T05:55:04.741Z,15.95
2023-05-15T05:57:35.259Z,15.57
2023-05-15T06:00:01.471Z,15.57
2023-05-15T06:02:29.408Z,16.25
2023-05-15T06:04:55.675Z,17.08
2023-05-15T06:07:21.997Z,17.00
2023-05-15T06:09:48.347Z,18.63
2023-05-15T06:12:14.676Z,16.65
2023-05-15T06:14:41.162Z,16.63
2023-05-15T06:17:09.258Z,15.50
2023-05-15T06:19:35.604Z,16.35
2023-05-15T06:22:02.829Z,16.50
2023-05-15T06:24:29.046Z,14.77
2023-05-15T06:26:57.893Z,15.65
2023-05-15T06:29:24.141Z,13.77
2023-05-15T06:31:50.362Z,14.85
2023-05-15T06:34:17.221Z,15.55
2023-05-15T06:36:43.505Z,15.15
2023-05-15T06:39:09.740Z,20.67
2023-05-15T06:41:35.946Z,15.90
2023-05-15T06:44:04.997Z,15.25
2023-05-15T06:46:31.391Z,17.60
2023-05-15T06:48:57.756Z,17.52
2023-05-15T06:51:28.825Z,16.17
2023-05-15T06:53:59.533Z,16.20
2023-05-15T06:56:25.798Z,19.50
2023-05-15T06:58:52.233Z,20.40
2023-05-15T07:01:20.718Z,17.65
2023-05-15T07:03:46.997Z,17.42
2023-05-15T07:06:13.220Z,16.65
2023-05-15T07:08:39.732Z,15.35
2023-05-15T07:11:05.989Z,16.42
2023-05-15T07:13:34.256Z,16.00
2023-05-15T07:16:00.489Z,21.00
2023-05-15T07:18:29.300Z,15.68
2023-05-15T07:20:55.781Z,18.27
2023-05-15T07:23:22.367Z,15.85
2023-05-15T07:25:48.611Z,16.60
2023-05-15T07:28:16.214Z,15.88
2023-05-15T07:30:45.311Z,16.95
2023-05-15T07:33:11.676Z,16.05
2023-05-15T07:35:40.830Z,15.10
2023-05-15T07:38:09.518Z,17.42
2023-05-15T07:40:35.769Z,16.25
2023-05-15T07:43:04.023Z,16.52
2023-05-15T07:45:30.985Z,15.88
2023-05-15T07:47:57.276Z,15.70
2023-05-15T07:50:23.636Z,16.48
2023-05-15T07:52:49.870Z,16.65
2023-05-15T07:55:20.112Z,16.13
2023-05-15T08:00:19.250Z,19.05
2023-05-15T08:02:47.485Z,16.67
2023-05-15T08:05:16.153Z,15.80
2023-05-15T08:07:43.978Z,16.50
2023-05-15T08:10:10.445Z,16.75
2023-05-15T08:12:36.687Z,16.10
2023-05-15T08:15:02.899Z,17.65
2023-05-15T08:17:29.321Z,16.88
2023-05-15T08:19:56.564Z,16.25
2023-05-15T08:22:22.824Z,17.13
2023-05-15T08:24:49.058Z,17.20
2023-05-15T08:27:15.334Z,16.67
2023-05-15T08:29:41.698Z,16.92
2023-05-15T08:32:10.326Z,17.70
2023-05-15T08:34:36.594Z,17.00
2023-05-15T08:37:02.881Z,17.27
2023-05-15T08:39:29.256Z,17.55
2023-05-15T08:41:57.301Z,18.05
2023-05-15T08:44:24.517Z,16.42
2023-05-15T08:46:53.132Z,16.50
2023-05-15T08:49:19.397Z,16.67
2023-05-15T08:51:45.595Z,16.98
2023-05-15T08:54:11.867Z,16.38
2023-05-15T08:56:38.776Z,17.13
2023-05-15T08:59:05.011Z,16.90
2023-05-15T09:01:32.167Z,15.50
2023-05-15T09:04:03.256Z,17.50
2023-05-15T09:06:31.456Z,16.50
2023-05-15T09:08:58.410Z,16.25
2023-05-15T09:11:24.720Z,16.15
2023-05-15T09:13:51.760Z,15.80
2023-05-15T09:16:21.075Z,16.23
2023-05-15T09:18:47.406Z,15.40
2023-05-15T09:21:13.666Z,16.50
2023-05-15T09:23:40.002Z,16.40
2023-05-15T09:26:09.036Z,16.38
2023-05-15T09:28:35.506Z,15.13
2023-05-15T09:31:07.340Z,17.20
2023-05-15T09:33:33.567Z,17.40
2023-05-15T09:35:59.800Z,16.70
2023-05-15T09:38:26.059Z,15.93
2023-05-15T09:40:52.404Z,16.95
2023-05-15T09:43:18.655Z,16.33
2023-05-15T09:45:47.932Z,16.17
2023-05-15T09:48:17.977Z,16.95
2023-05-15T09:50:44.394Z,16.75
2023-05-15T09:53:10.709Z,15.65
2023-05-15T09:55:36.908Z,16.25
2023-05-15T09:58:03.960Z,16.90
2023-05-15T10:00:32.077Z,14.93
2023-05-15T10:03:02.444Z,14.98
2023-05-15T10:05:42.055Z,16.02
2023-05-15T10:08:12.375Z,16.67
2023-05-15T10:10:39.652Z,15.20
2023-05-15T10:13:08.898Z,15.80
2023-05-15T10:15:35.384Z,16.15
2023-05-15T10:18:06.298Z,18.20
2023-05-15T10:20:32.559Z,15.32
2023-05-15T10:22:58.854Z,15.02
2023-05-15T10:25:26.741Z,15.45
2023-05-15T10:27:53.000Z,16.50
2023-05-15T10:30:20.637Z,15.50
2023-05-15T10:32:46.845Z,17.02
2023-05-15T10:35:13.085Z,15.95
2023-05-15T10:37:42.054Z,16.58
2023-05-15T10:40:08.877Z,16.02
2023-05-15T10:42:37.993Z,16.15
2023-05-15T10:45:07.606Z,16.00
2023-05-15T10:47:33.865Z,16.30
2023-05-15T10:50:00.077Z,16.63
2023-05-15T10:52:26.372Z,15.80
2023-05-15T10:54:52.594Z,15.20
2023-05-15T10:57:18.830Z,16.55
2023-05-15T10:59:45.900Z,15.43
2023-05-15T11:02:12.108Z,15.48
2023-05-15T11:04:38.392Z,15.00
2023-05-15T11:07:06.991Z,16.00
2023-05-15T11:09:33.335Z,15.38
2023-05-15T11:11:59.694Z,14.20
2023-05-15T11:14:26.004Z,14.82
2023-05-15T11:16:52.234Z,15.60
2023-05-15T11:19:18.594Z,16.20
2023-05-15T11:24:19.135Z,16.83
2023-05-15T11:26:45.343Z,14.98
2023-05-15T11:29:11.782Z,16.00
2023-05-15T11:31:39.080Z,15.95
2023-05-15T11:34:07.047Z,15.68
2023-05-15T11:36:37.591Z,15.80
2023-05-15T11:39:09.494Z,14.98
2023-05-15T11:41:36.943Z,14.93
2023-05-15T11:44:08.829Z,15.38
2023-05-15T11:46:35.100Z,14.40
2023-05-15T11:49:03.302Z,16.85
2023-05-15T11:51:29.581Z,18.08
2023-05-15T11:53:59.323Z,58.83
2023-05-15T11:56:25.553Z,108.25
2023-05-15T11:58:54.078Z,89.85
2023-05-15T12:01:20.463Z,96.78
2023-05-15T12:03:46.901Z,103.63
2023-05-15T12:06:13.646Z,61.30
2023-05-15T12:08:39.888Z,68.88
2023-05-15T12:11:06.109Z,41.38
2023-05-15T12:13:32.472Z,38.47
2023-05-15T12:16:00.622Z,37.25
2023-05-15T12:18:27.290Z,40.33
2023-05-15T12:20:53.585Z,42.22
2023-05-15T12:23:20.156Z,63.70
2023-05-15T12:25:46.880Z,141.32
2023-05-15T12:28:15.370Z,102.63
2023-05-15T12:30:41.650Z,158.93
2023-05-15T12:33:07.947Z,88.95
2023-05-15T12:35:34.212Z,125.03
2023-05-15T12:38:00.460Z,121.88
2023-05-15T12:40:33.392Z,109.90
2023-05-15T12:42:59.652Z,112.10
2023-05-15T12:45:28.804Z,117.47
2023-05-15T12:47:55.326Z,149.80
2023-05-15T12:50:24.563Z,230.25
2023-05-15T12:52:56.614Z,112.72
2023-05-15T12:55:25.854Z,57.57
2023-05-15T12:57:53.796Z,35.55
2023-05-15T13:00:21.999Z,53.97
2023-05-15T13:02:52.910Z,43.90
2023-05-15T13:05:23.356Z,36.92
2023-05-15T13:07:53.203Z,35.85
2023-05-15T13:10:24.588Z,31.25
2023-05-15T13:12:51.007Z,24.33
2023-05-15T13:15:17.323Z,72.75
2023-05-15T13:17:43.642Z,83.70
2023-05-15T13:20:09.939Z,83.65
2023-05-15T13:22:39.647Z,59.55
2023-05-15T13:25:07.911Z,78.40
2023-05-15T13:27:34.166Z,72.22
2023-05-15T13:30:00.464Z,78.28
2023-05-15T13:32:28.083Z,73.95
2023-05-15T13:34:54.493Z,99.40
2023-05-15T13:37:20.789Z,57.60
2023-05-15T13:39:47.084Z,40.78
2023-05-15T13:42:13.340Z,46.88
2023-05-15T13:44:41.552Z,33.50
2023-05-15T13:47:07.771Z,24.83
2023-05-15T13:49:34.092Z,25.35
2023-05-15T13:52:00.340Z,15.88
2023-05-15T13:54:26.665Z,16.60
2023-05-15T13:56:52.875Z,13.80
2023-05-15T13:59:22.481Z,14.80
2023-05-15T14:01:48.785Z,14.35
2023-05-15T14:04:15.066Z,41.42
2023-05-15T14:06:41.551Z,156.48
2023-05-15T14:09:07.772Z,53.13
2023-05-15T14:11:34.091Z,63.20
2023-05-15T14:14:00.373Z,45.45
2023-05-15T14:16:30.404Z,41.00
2023-05-15T14:18:56.710Z,49.65
2023-05-15T14:21:25.079Z,32.53
2023-05-15T14:23:54.211Z,27.90
2023-05-15T14:26:20.504Z,22.05
2023-05-15T14:28:46.760Z,33.78
2023-05-15T14:31:12.963Z,53.17
2023-05-15T14:33:39.178Z,85.38
2023-05-15T14:36:05.425Z,52.67
2023-05-15T14:38:31.732Z,41.33
2023-05-15T14:40:57.935Z,29.08
2023-05-15T14:43:26.669Z,27.35
2023-05-15T14:45:52.906Z,20.60
2023-05-15T14:48:22.784Z,22.73
2023-05-15T14:50:49.046Z,20.23
2023-05-15T14:53:15.334Z,34.92
2023-05-15T14:55:41.549Z,42.53
2023-05-15T14:58:07.827Z,51.30
2023-05-15T15:00:34.108Z,36.65
2023-05-15T15:03:00.565Z,24.83
2023-05-15T15:05:28.339Z,22.05
2023-05-15T15:07:55.112Z,17.92
2023-05-15T15:10:22.462Z,16.38
2023-05-15T15:12:48.690Z,12.88
2023-05-15T15:15:14.919Z,14.30
2023-05-15T15:17:45.478Z,24.25
2023-05-15T15:20:11.729Z,34.50
2023-05-15T15:22:37.989Z,26.13
2023-05-15T15:25:07.080Z,14.23
2023-05-15T15:27:37.230Z,16.33
2023-05-15T15:30:03.579Z,12.68
2023-05-15T15:32:29.920Z,10.98
2023-05-15T15:34:56.133Z,9.70
2023-05-15T15:37:23.507Z,7.28
2023-05-15T15:39:51.826Z,9.43
2023-05-15T15:42:18.477Z,9.00
2023-05-15T15:44:47.712Z,55.78
2023-05-15T15:47:16.394Z,45.17
2023-05-15T15:49:46.206Z,27.00
2023-05-15T15:52:12.441Z,19.38
2023-05-15T15:54:39.062Z,20.33
2023-05-15T15:57:05.308Z,18.75
2023-05-15T15:59:31.614Z,14.52
2023-05-15T16:01:57.868Z,10.98
2023-05-15T16:04:24.090Z,9.07
2023-05-15T16:06:50.662Z,9.60
2023-05-15T16:09:19.699Z,105.28
2023-05-15T16:11:47.067Z,221.10
2023-05-15T16:14:13.271Z,188.35
2023-05-15T16:16:40.561Z,171.93
2023-05-15T16:19:06.815Z,162.18
2023-05-15T16:21:33.065Z,185.00
2023-05-15T16:23:59.344Z,346.30
2023-05-15T16:26:25.640Z,542.70
2023-05-15T16:28:52.798Z,479.48
2023-05-15T16:31:20.022Z,402.23
2023-05-15T16:33:51.130Z,360.83
2023-05-15T16:36:18.267Z,343.70
2023-05-15T16:38:44.505Z,294.38
2023-05-15T16:41:10.836Z,331.88
2023-05-15T16:43:37.064Z,357.35
2023-05-15T16:46:03.444Z,394.70
2023-05-15T16:48:29.946Z,445.85
2023-05-15T16:50:56.214Z,440.20
2023-05-15T16:53:23.926Z,429.55
2023-05-15T16:55:50.208Z,426.67
2023-05-15T16:58:18.706Z,411.75
2023-05-15T17:00:48.372Z,386.65
2023-05-15T17:03:18.530Z,385.40
2023-05-15T17:05:44.784Z,381.73
2023-05-15T17:08:11.693Z,385.05
2023-05-15T17:10:37.933Z,376.33
2023-05-15T17:13:04.158Z,376.30
2023-05-15T17:15:30.378Z,369.23
2023-05-15T17:17:59.118Z,365.15
2023-05-15T17:20:29.055Z,366.50
2023-05-15T17:22:55.260Z,364.13
2023-05-15T17:25:21.587Z,361.20
2023-05-15T17:27:50.090Z,358.15
2023-05-15T17:30:16.377Z,355.05
2023-05-15T17:32:42.601Z,350.02
2023-05-15T17:35:13.063Z,358.42
2023-05-15T17:37:39.276Z,345.75
2023-05-15T17:40:05.512Z,337.05
2023-05-15T17:42:31.884Z,343.77
2023-05-15T17:45:01.227Z,339.15
2023-05-15T17:47:27.449Z,340.73
2023-05-15T17:49:53.790Z,334.42
2023-05-15T17:52:22.698Z,330.30
2023-05-15T17:54:48.927Z,331.00
2023-05-15T17:57:15.141Z,301.90
2023-05-15T17:59:41.375Z,289.00
2023-05-15T18:02:07.674Z,293.55
2023-05-15T18:04:33.918Z,282.58
2023-05-15T18:07:00.121Z,273.98
2023-05-15T18:09:26.586Z,283.60
2023-05-15T18:11:52.786Z,295.55
2023-05-15T18:14:19.019Z,252.77
2023-05-15T18:16:45.255Z,239.68
2023-05-15T18:19:11.533Z,246.70
2023-05-15T18:24:08.102Z,271.38
2023-05-15T18:26:36.824Z,259.60
2023-05-15T18:29:03.036Z,245.90
2023-05-15T18:31:29.442Z,255.38
2023-05-15T18:33:55.754Z,255.07
2023-05-15T18:36:22.023Z,245.45
2023-05-15T18:38:48.211Z,251.77
2023-05-15T18:41:14.442Z,241.50
2023-05-15T18:43:44.221Z,249.82
2023-05-15T18:46:10.544Z,241.40
2023-05-15T18:48:38.184Z,239.25
2023-05-15T18:51:08.018Z,236.88
2023-05-15T18:53:35.102Z,225.05
2023-05-15T18:56:01.339Z,212.15
2023-05-15T18:58:31.335Z,241.05
2023-05-15T19:01:00.281Z,231.07
2023-05-15T19:03:26.568Z,216.52
2023-05-15T19:05:55.589Z,224.07
2023-05-15T19:08:22.308Z,223.20
2023-05-15T19:10:53.757Z,215.13
2023-05-15T19:13:20.223Z,199.82
2023-05-15T19:15:46.441Z,199.50
2023-05-15T19:18:12.697Z,186.45
2023-05-15T19:20:44.627Z,180.13
2023-05-15T19:23:12.846Z,181.38
2023-05-15T19:25:39.239Z,184.32
2023-05-15T19:28:05.515Z,175.90
2023-05-15T19:30:31.860Z,178.43
2023-05-15T19:32:58.174Z,174.20
2023-05-15T19:35:28.001Z,172.50
2023-05-15T19:37:54.346Z,170.52
2023-05-15T19:40:24.249Z,172.60
2023-05-15T19:42:50.679Z,167.68
2023-05-15T19:45:17.010Z,167.68
2023-05-15T19:47:43.352Z,166.98
2023-05-15T19:50:09.607Z,161.80
2023-05-15T19:52:35.877Z,160.50
2023-05-15T19:55:02.114Z,162.38
2023-05-15T19:57:28.328Z,162.52
2023-05-15T19:59:54.535Z,161.40
2023-05-15T20:02:22.155Z,152.38
2023-05-15T20:04:49.185Z,157.68
2023-05-15T20:07:15.409Z,157.85
2023-05-15T20:09:42.244Z,154.10
2023-05-15T20:12:09.499Z,161.05
2023-05-15T20:14:35.729Z,153.23
2023-05-15T20:17:01.984Z,151.70
2023-05-15T20:19:30.479Z,153.45
2023-05-15T20:21:58.874Z,149.70
2023-05-15T20:24:25.113Z,147.90
2023-05-15T20:26:53.214Z,150.55
2023-05-15T20:29:19.441Z,149.05
2023-05-15T20:31:45.790Z,148.77
2023-05-15T20:34:12.124Z,149.90
2023-05-15T20:36:39.941Z,149.55
2023-05-15T20:39:10.062Z,142.35
2023-05-15T20:41:37.059Z,143.98
2023-05-15T20:44:03.275Z,140.30
2023-05-15T20:46:30.109Z,137.77
2023-05-15T20:48:56.812Z,138.13
2023-05-15T20:51:23.015Z,139.13
2023-05-15T20:53:49.246Z,137.60
2023-05-15T20:56:15.438Z,135.93
2023-05-15T20:58:42.995Z,133.88
2023-05-15T21:01:12.567Z,138.23
2023-05-15T21:03:40.587Z,130.18
2023-05-15T21:06:06.880Z,133.23
2023-05-15T21:08:38.472Z,131.73
2023-05-15T21:11:04.683Z,126.53
2023-05-15T21:13:34.473Z,128.73
2023-05-15T21:16:00.713Z,128.52
2023-05-15T21:18:30.696Z,127.13
2023-05-15T21:20:59.807Z,127.85
2023-05-15T21:23:26.054Z,121.32
2023-05-15T21:25:52.476Z,126.50
2023-05-15T21:28:21.521Z,120.95
2023-05-15T21:30:49.725Z,124.75
2023-05-15T21:33:16.030Z,116.28
2023-05-15T21:35:42.427Z,120.35
2023-05-15T21:38:09.587Z,118.25
2023-05-15T21:40:35.935Z,119.38
2023-05-15T21:43:07.521Z,115.93
2023-05-15T21:45:33.792Z,120.45
2023-05-15T21:48:00.091Z,113.38
2023-05-15T21:50:31.364Z,112.07
2023-05-15T21:52:58.628Z,111.93
2023-05-15T21:55:25.018Z,106.82
2023-05-15T21:57:51.412Z,113.43
2023-05-15T22:00:18.190Z,107.63
2023-05-15T22:02:44.765Z,109.05
2023-05-15T22:05:14.323Z,103.68
2023-05-15T22:07:40.591Z,110.25
2023-05-15T22:10:06.806Z,106.93
2023-05-15T22:12:33.057Z,107.88
2023-05-15T22:14:59.921Z,106.63
2023-05-15T22:17:29.527Z,99.32
2023-05-15T22:19:55.755Z,100.55
2023-05-15T22:22:21.983Z,101.25
2023-05-15T22:24:52.691Z,96.90
2023-05-15T22:27:19.234Z,103.65
2023-05-15T22:29:45.565Z,98.30
2023-05-15T22:32:15.148Z,96.73
2023-05-15T22:34:41.401Z,96.97
2023-05-15T22:37:10.305Z,93.95
2023-05-15T22:39:36.572Z,96.30
2023-05-15T22:42:02.866Z,95.45
2023-05-15T22:44:32.494Z,93.20
2023-05-15T22:46:58.743Z,92.90
2023-05-15T22:49:29.526Z,93.43
2023-05-15T22:51:55.969Z,90.40
2023-05-15T22:54:23.345Z,89.13
2023-05-15T22:56:53.697Z,88.20
2023-05-15T22:59:20.118Z,84.32
2023-05-15T23:01:47.810Z,84.93
2023-05-15T23:04:15.295Z,84.65
2023-05-15T23:06:43.229Z,82.82
2023-05-15T23:09:09.452Z,83.90
2023-05-15T23:11:37.942Z,81.90
2023-05-15T23:14:04.245Z,82.38
2023-05-15T23:16:30.558Z,78.20
2023-05-15T23:18:56.883Z,80.80
2023-05-15T23:21:26.460Z,82.68
2023-05-15T23:23:55.283Z,76.78
2023-05-15T23:28:52.020Z,79.68
2023-05-15T23:31:18.268Z,79.45
2023-05-15T23:33:44.511Z,76.40
2023-05-15T23:36:10.743Z,77.32
2023-05-15T23:38:38.675Z,78.07
2023-05-15T23:41:05.052Z,76.65
2023-05-15T23:43:36.116Z,75.00
2023-05-15T23:46:02.601Z,72.78
2023-05-15T23:48:28.834Z,72.93
2023-05-15T23:50:55.118Z,73.65
2023-05-15T23:53:26.527Z,68.65
2023-05-15T23:55:52.737Z,69.30
2023-05-15T23:58:18.950Z,67.10
